SVLO weather

La Orchila Airport
Dependencias Federales, Venezuela

Public forecast

Using degrees Celsius for public forecast. Weather courtesy of forecast.io.

METAR (pilot weather report)

Report is more than 6 hours old.

Retrieved 2018/09/17 10:00 UTC (1 year ago):

SVLO 171000Z /////KT 9999 SCT013 26/23 Q1011

TAF (pilot weather forecast)

Closest forecast is Simón Bolívar International Airport, 86.8 nm (160.7 km) SSW. Retrieved 2019/09/19 18:03 UTC (0 seconds ago):

TAF SVMI 191600Z 1918/2018 05005KT 9999 SCT016 TX30/18Z TN24/06Z BECMG 1918/1922 05004KT 9999 SCT016